sensor_id;sensor_type;location;lat;lon;timestamp;temperature;humidity
7700;DHT22;3892;47.794;19.126;2023-01-13T00:00:35;10.50;40.40
7700;DHT22;3892;47.794;19.126;2023-01-13T00:03:04;10.50;40.50
7700;DHT22;3892;47.794;19.126;2023-01-13T00:05:33;10.50;40.50
7700;DHT22;3892;47.794;19.126;2023-01-13T00:08:01;10.50;40.50
7700;DHT22;3892;47.794;19.126;2023-01-13T00:10:31;10.40;40.50
7700;DHT22;3892;47.794;19.126;2023-01-13T00:12:58;10.40;40.50
7700;DHT22;3892;47.794;19.126;2023-01-13T00:15:25;10.40;40.60
7700;DHT22;3892;47.794;19.126;2023-01-13T00:17:52;10.40;40.60
7700;DHT22;3892;47.794;19.126;2023-01-13T00:20:20;10.40;40.70
7700;DHT22;3892;47.794;19.126;2023-01-13T00:22:47;10.40;40.70
7700;DHT22;3892;47.794;19.126;2023-01-13T00:25:14;10.30;40.80
7700;DHT22;3892;47.794;19.126;2023-01-13T00:27:42;10.30;40.80
7700;DHT22;3892;47.794;19.126;2023-01-13T00:30:10;10.40;40.80
7700;DHT22;3892;47.794;19.126;2023-01-13T00:32:37;10.40;40.90
7700;DHT22;3892;47.794;19.126;2023-01-13T00:35:05;10.40;40.90
7700;DHT22;3892;47.794;19.126;2023-01-13T00:37:36;10.40;40.90
7700;DHT22;3892;47.794;19.126;2023-01-13T00:40:04;10.40;40.80
7700;DHT22;3892;47.794;19.126;2023-01-13T00:42:32;10.50;40.90
7700;DHT22;3892;47.794;19.126;2023-01-13T00:45:16;10.50;40.80
7700;DHT22;3892;47.794;19.126;2023-01-13T00:47:43;10.50;40.80
7700;DHT22;3892;47.794;19.126;2023-01-13T00:50:11;10.50;40.90
7700;DHT22;3892;47.794;19.126;2023-01-13T00:52:39;10.50;40.90
7700;DHT22;3892;47.794;19.126;2023-01-13T00:55:07;10.50;41.00
7700;DHT22;3892;47.794;19.126;2023-01-13T00:57:34;10.50;41.10
7700;DHT22;3892;47.794;19.126;2023-01-13T01:00:01;10.50;41.40
7700;DHT22;3892;47.794;19.126;2023-01-13T01:02:28;10.50;41.50
7700;DHT22;3892;47.794;19.126;2023-01-13T01:04:55;10.50;41.60
7700;DHT22;3892;47.794;19.126;2023-01-13T01:07:22;10.40;42.20
7700;DHT22;3892;47.794;19.126;2023-01-13T01:09:50;10.40;42.30
7700;DHT22;3892;47.794;19.126;2023-01-13T01:12:17;10.40;42.50
7700;DHT22;3892;47.794;19.126;2023-01-13T01:14:44;10.40;42.50
7700;DHT22;3892;47.794;19.126;2023-01-13T01:17:11;10.50;42.60
7700;DHT22;3892;47.794;19.126;2023-01-13T01:19:38;10.40;42.60
7700;DHT22;3892;47.794;19.126;2023-01-13T01:22:07;10.50;42.60
7700;DHT22;3892;47.794;19.126;2023-01-13T01:24:34;10.50;42.50
7700;DHT22;3892;47.794;19.126;2023-01-13T01:27:02;10.60;42.40
7700;DHT22;3892;47.794;19.126;2023-01-13T01:29:29;10.60;42.40
7700;DHT22;3892;47.794;19.126;2023-01-13T01:31:57;10.60;42.30
7700;DHT22;3892;47.794;19.126;2023-01-13T01:34:24;10.50;42.30
7700;DHT22;3892;47.794;19.126;2023-01-13T01:36:51;10.50;42.50
7700;DHT22;3892;47.794;19.126;2023-01-13T01:39:18;10.50;42.70
7700;DHT22;3892;47.794;19.126;2023-01-13T01:41:45;10.50;42.70
7700;DHT22;3892;47.794;19.126;2023-01-13T01:44:55;10.60;42.70
7700;DHT22;3892;47.794;19.126;2023-01-13T01:47:24;10.50;42.60
7700;DHT22;3892;47.794;19.126;2023-01-13T01:49:53;10.50;42.60
7700;DHT22;3892;47.794;19.126;2023-01-13T01:52:25;10.60;42.60
7700;DHT22;3892;47.794;19.126;2023-01-13T01:54:57;10.60;42.60
7700;DHT22;3892;47.794;19.126;2023-01-13T01:57:29;10.60;42.60
7700;DHT22;3892;47.794;19.126;2023-01-13T02:00:00;10.60;42.70
7700;DHT22;3892;47.794;19.126;2023-01-13T02:02:38;10.60;42.70
7700;DHT22;3892;47.794;19.126;2023-01-13T02:05:06;10.70;42.80
7700;DHT22;3892;47.794;19.126;2023-01-13T02:07:33;10.70;42.70
7700;DHT22;3892;47.794;19.126;2023-01-13T02:10:06;10.70;42.70
7700;DHT22;3892;47.794;19.126;2023-01-13T02:12:34;10.70;42.70
7700;DHT22;3892;47.794;19.126;2023-01-13T02:15:05;10.70;42.80
7700;DHT22;3892;47.794;19.126;2023-01-13T02:17:55;10.70;42.80
7700;DHT22;3892;47.794;19.126;2023-01-13T02:20:42;10.60;42.60
7700;DHT22;3892;47.794;19.126;2023-01-13T02:29:45;10.60;42.70
7700;DHT22;3892;47.794;19.126;2023-01-13T02:32:34;10.60;42.70
7700;DHT22;3892;47.794;19.126;2023-01-13T02:35:09;10.50;42.70
7700;DHT22;3892;47.794;19.126;2023-01-13T02:37:41;10.50;42.80
7700;DHT22;3892;47.794;19.126;2023-01-13T02:40:11;10.50;42.80
7700;DHT22;3892;47.794;19.126;2023-01-13T02:42:44;10.50;42.90
7700;DHT22;3892;47.794;19.126;2023-01-13T02:45:42;10.50;42.90
7700;DHT22;3892;47.794;19.126;2023-01-13T02:48:13;10.60;43.10
7700;DHT22;3892;47.794;19.126;2023-01-13T02:50:45;10.60;42.90
7700;DHT22;3892;47.794;19.126;2023-01-13T02:53:17;10.70;42.90
7700;DHT22;3892;47.794;19.126;2023-01-13T02:55:47;10.70;42.80
7700;DHT22;3892;47.794;19.126;2023-01-13T02:58:17;10.60;42.80
7700;DHT22;3892;47.794;19.126;2023-01-13T03:00:48;10.60;42.70
7700;DHT22;3892;47.794;19.126;2023-01-13T03:03:15;10.70;42.70
7700;DHT22;3892;47.794;19.126;2023-01-13T03:05:43;10.60;42.30
7700;DHT22;3892;47.794;19.126;2023-01-13T03:08:27;10.60;42.40
7700;DHT22;3892;47.794;19.126;2023-01-13T03:11:02;10.60;42.40
7700;DHT22;3892;47.794;19.126;2023-01-13T03:16:30;10.60;42.30
7700;DHT22;3892;47.794;19.126;2023-01-13T03:19:07;10.70;42.90
7700;DHT22;3892;47.794;19.126;2023-01-13T03:21:42;10.70;42.30
7700;DHT22;3892;47.794;19.126;2023-01-13T03:24:14;10.60;42.00
7700;DHT22;3892;47.794;19.126;2023-01-13T03:26:47;10.60;42.00
7700;DHT22;3892;47.794;19.126;2023-01-13T03:29:18;10.50;42.10
7700;DHT22;3892;47.794;19.126;2023-01-13T03:31:53;10.40;42.20
7700;DHT22;3892;47.794;19.126;2023-01-13T03:34:25;10.50;42.40
7700;DHT22;3892;47.794;19.126;2023-01-13T03:36:56;10.40;42.40
7700;DHT22;3892;47.794;19.126;2023-01-13T03:39:30;10.40;42.20
7700;DHT22;3892;47.794;19.126;2023-01-13T03:42:00;10.40;42.30
7700;DHT22;3892;47.794;19.126;2023-01-13T03:44:31;10.40;42.20
7700;DHT22;3892;47.794;19.126;2023-01-13T03:47:06;10.50;42.20
7700;DHT22;3892;47.794;19.126;2023-01-13T03:49:38;10.50;42.20
7700;DHT22;3892;47.794;19.126;2023-01-13T03:52:09;10.60;42.30
7700;DHT22;3892;47.794;19.126;2023-01-13T03:54:44;10.60;42.30
7700;DHT22;3892;47.794;19.126;2023-01-13T03:57:14;10.60;42.20
7700;DHT22;3892;47.794;19.126;2023-01-13T03:59:45;10.60;42.80
7700;DHT22;3892;47.794;19.126;2023-01-13T04:02:20;10.50;41.90
7700;DHT22;3892;47.794;19.126;2023-01-13T04:04:53;10.60;42.10
7700;DHT22;3892;47.794;19.126;2023-01-13T04:07:30;10.50;42.00
7700;DHT22;3892;47.794;19.126;2023-01-13T04:10:01;10.60;42.10
7700;DHT22;3892;47.794;19.126;2023-01-13T04:12:30;10.60;42.00
7700;DHT22;3892;47.794;19.126;2023-01-13T04:15:11;10.60;41.90
7700;DHT22;3892;47.794;19.126;2023-01-13T04:17:40;10.60;42.00
7700;DHT22;3892;47.794;19.126;2023-01-13T04:20:08;10.60;42.10
7700;DHT22;3892;47.794;19.126;2023-01-13T04:22:35;10.60;42.10
7700;DHT22;3892;47.794;19.126;2023-01-13T04:25:03;10.60;41.80
7700;DHT22;3892;47.794;19.126;2023-01-13T04:27:30;10.60;41.80
7700;DHT22;3892;47.794;19.126;2023-01-13T04:29:57;10.50;41.80
7700;DHT22;3892;47.794;19.126;2023-01-13T04:32:24;10.50;41.90
7700;DHT22;3892;47.794;19.126;2023-01-13T04:34:52;10.50;41.90
7700;DHT22;3892;47.794;19.126;2023-01-13T04:37:19;10.40;41.80
7700;DHT22;3892;47.794;19.126;2023-01-13T04:39:46;10.40;42.00
7700;DHT22;3892;47.794;19.126;2023-01-13T04:42:13;10.40;42.00
7700;DHT22;3892;47.794;19.126;2023-01-13T04:44:41;10.40;42.00
7700;DHT22;3892;47.794;19.126;2023-01-13T04:47:08;10.40;41.90
7700;DHT22;3892;47.794;19.126;2023-01-13T04:49:35;10.40;42.10
7700;DHT22;3892;47.794;19.126;2023-01-13T04:52:03;10.40;42.10
7700;DHT22;3892;47.794;19.126;2023-01-13T04:54:31;10.30;42.30
7700;DHT22;3892;47.794;19.126;2023-01-13T04:56:58;10.40;42.40
7700;DHT22;3892;47.794;19.126;2023-01-13T04:59:25;10.40;42.30
7700;DHT22;3892;47.794;19.126;2023-01-13T05:01:52;10.40;42.30
7700;DHT22;3892;47.794;19.126;2023-01-13T05:04:20;10.50;42.30
7700;DHT22;3892;47.794;19.126;2023-01-13T05:06:47;10.50;42.30
7700;DHT22;3892;47.794;19.126;2023-01-13T05:09:15;10.50;42.40
7700;DHT22;3892;47.794;19.126;2023-01-13T05:11:42;10.60;42.50
7700;DHT22;3892;47.794;19.126;2023-01-13T05:14:27;10.50;42.50
7700;DHT22;3892;47.794;19.126;2023-01-13T05:17:17;10.50;42.70
7700;DHT22;3892;47.794;19.126;2023-01-13T05:19:46;10.50;42.80
7700;DHT22;3892;47.794;19.126;2023-01-13T05:22:13;10.60;42.90
7700;DHT22;3892;47.794;19.126;2023-01-13T05:24:59;10.60;42.80
7700;DHT22;3892;47.794;19.126;2023-01-13T05:27:43;10.50;42.70
7700;DHT22;3892;47.794;19.126;2023-01-13T05:30:11;10.50;42.80
7700;DHT22;3892;47.794;19.126;2023-01-13T05:32:38;10.40;42.70
7700;DHT22;3892;47.794;19.126;2023-01-13T05:35:06;10.30;42.80
7700;DHT22;3892;47.794;19.126;2023-01-13T05:37:33;10.20;42.80
7700;DHT22;3892;47.794;19.126;2023-01-13T05:40:02;10.30;43.00
7700;DHT22;3892;47.794;19.126;2023-01-13T05:42:46;10.30;42.90
7700;DHT22;3892;47.794;19.126;2023-01-13T05:45:29;10.40;42.90
7700;DHT22;3892;47.794;19.126;2023-01-13T05:47:56;10.50;42.90
7700;DHT22;3892;47.794;19.126;2023-01-13T05:50:24;10.50;42.80
7700;DHT22;3892;47.794;19.126;2023-01-13T05:52:51;10.40;42.50
7700;DHT22;3892;47.794;19.126;2023-01-13T05:55:19;10.40;42.70
7700;DHT22;3892;47.794;19.126;2023-01-13T05:57:46;10.30;42.80
7700;DHT22;3892;47.794;19.126;2023-01-13T06:00:14;10.30;42.90
7700;DHT22;3892;47.794;19.126;2023-01-13T06:02:41;10.40;42.90
7700;DHT22;3892;47.794;19.126;2023-01-13T06:05:08;10.30;42.70
7700;DHT22;3892;47.794;19.126;2023-01-13T06:07:35;10.20;42.70
7700;DHT22;3892;47.794;19.126;2023-01-13T06:10:03;10.30;43.00
7700;DHT22;3892;47.794;19.126;2023-01-13T06:12:31;10.30;42.90
7700;DHT22;3892;47.794;19.126;2023-01-13T06:14:58;10.30;42.80
7700;DHT22;3892;47.794;19.126;2023-01-13T06:17:26;10.40;42.80
7700;DHT22;3892;47.794;19.126;2023-01-13T06:19:53;10.40;42.70
7700;DHT22;3892;47.794;19.126;2023-01-13T06:22:23;10.40;42.60
7700;DHT22;3892;47.794;19.126;2023-01-13T06:24:52;10.50;42.70
7700;DHT22;3892;47.794;19.126;2023-01-13T06:27:20;10.40;42.30
7700;DHT22;3892;47.794;19.126;2023-01-13T06:29:48;10.40;42.40
7700;DHT22;3892;47.794;19.126;2023-01-13T06:32:18;10.30;42.20
7700;DHT22;3892;47.794;19.126;2023-01-13T06:34:51;10.30;42.30
7700;DHT22;3892;47.794;19.126;2023-01-13T06:37:21;10.30;42.30
7700;DHT22;3892;47.794;19.126;2023-01-13T06:39:50;10.40;42.40
7700;DHT22;3892;47.794;19.126;2023-01-13T06:42:18;10.40;42.20
7700;DHT22;3892;47.794;19.126;2023-01-13T06:45:05;10.40;42.10
7700;DHT22;3892;47.794;19.126;2023-01-13T06:47:32;10.40;42.10
7700;DHT22;3892;47.794;19.126;2023-01-13T06:49:59;10.40;42.10
7700;DHT22;3892;47.794;19.126;2023-01-13T06:52:26;10.40;42.00
7700;DHT22;3892;47.794;19.126;2023-01-13T06:54:55;10.50;42.00
7700;DHT22;3892;47.794;19.126;2023-01-13T06:57:22;10.50;42.00
7700;DHT22;3892;47.794;19.126;2023-01-13T06:59:49;10.50;41.80
7700;DHT22;3892;47.794;19.126;2023-01-13T07:02:17;10.50;41.70
7700;DHT22;3892;47.794;19.126;2023-01-13T07:04:44;10.50;41.80
7700;DHT22;3892;47.794;19.126;2023-01-13T07:07:12;10.50;41.70
7700;DHT22;3892;47.794;19.126;2023-01-13T07:09:39;10.50;41.70
7700;DHT22;3892;47.794;19.126;2023-01-13T07:12:07;10.50;41.70
7700;DHT22;3892;47.794;19.126;2023-01-13T07:14:34;10.50;41.90
7700;DHT22;3892;47.794;19.126;2023-01-13T07:17:20;10.40;41.70
7700;DHT22;3892;47.794;19.126;2023-01-13T07:19:50;10.20;41.80
7700;DHT22;3892;47.794;19.126;2023-01-13T07:22:17;10.20;42.10
7700;DHT22;3892;47.794;19.126;2023-01-13T07:24:44;10.20;42.40
7700;DHT22;3892;47.794;19.126;2023-01-13T07:27:11;10.10;42.30
7700;DHT22;3892;47.794;19.126;2023-01-13T07:29:38;10.10;42.10
7700;DHT22;3892;47.794;19.126;2023-01-13T07:32:05;10.00;42.20
7700;DHT22;3892;47.794;19.126;2023-01-13T07:34:34;9.90;43.00
7700;DHT22;3892;47.794;19.126;2023-01-13T07:37:01;9.90;43.20
7700;DHT22;3892;47.794;19.126;2023-01-13T07:39:28;9.90;43.30
7700;DHT22;3892;47.794;19.126;2023-01-13T07:41:55;9.80;43.50
7700;DHT22;3892;47.794;19.126;2023-01-13T07:44:39;9.80;43.60
7700;DHT22;3892;47.794;19.126;2023-01-13T07:47:06;9.80;43.80
7700;DHT22;3892;47.794;19.126;2023-01-13T07:49:36;9.80;43.60
7700;DHT22;3892;47.794;19.126;2023-01-13T07:52:06;9.90;43.50
7700;DHT22;3892;47.794;19.126;2023-01-13T07:54:33;9.90;43.40
7700;DHT22;3892;47.794;19.126;2023-01-13T07:57:00;9.90;43.30
7700;DHT22;3892;47.794;19.126;2023-01-13T07:59:27;9.80;43.30
7700;DHT22;3892;47.794;19.126;2023-01-13T08:01:55;9.80;43.50
7700;DHT22;3892;47.794;19.126;2023-01-13T08:04:22;9.80;43.50
7700;DHT22;3892;47.794;19.126;2023-01-13T08:06:50;9.80;43.50
7700;DHT22;3892;47.794;19.126;2023-01-13T08:09:17;9.80;43.40
7700;DHT22;3892;47.794;19.126;2023-01-13T08:11:44;9.80;43.40
7700;DHT22;3892;47.794;19.126;2023-01-13T08:14:31;9.80;43.40
7700;DHT22;3892;47.794;19.126;2023-01-13T08:16:58;9.70;43.40
7700;DHT22;3892;47.794;19.126;2023-01-13T08:19:25;9.80;43.60
7700;DHT22;3892;47.794;19.126;2023-01-13T08:21:53;9.80;43.50
7700;DHT22;3892;47.794;19.126;2023-01-13T08:24:20;9.90;43.60
7700;DHT22;3892;47.794;19.126;2023-01-13T08:26:47;9.90;43.40
7700;DHT22;3892;47.794;19.126;2023-01-13T08:29:15;10.00;42.60
7700;DHT22;3892;47.794;19.126;2023-01-13T08:31:42;10.10;42.50
7700;DHT22;3892;47.794;19.126;2023-01-13T08:34:09;10.10;42.10
7700;DHT22;3892;47.794;19.126;2023-01-13T08:36:36;10.20;42.00
7700;DHT22;3892;47.794;19.126;2023-01-13T08:39:04;10.10;41.90
7700;DHT22;3892;47.794;19.126;2023-01-13T08:41:31;10.10;42.10
7700;DHT22;3892;47.794;19.126;2023-01-13T08:44:16;10.10;42.00
7700;DHT22;3892;47.794;19.126;2023-01-13T08:46:42;9.90;42.70
7700;DHT22;3892;47.794;19.126;2023-01-13T08:49:10;9.80;42.90
7700;DHT22;3892;47.794;19.126;2023-01-13T08:51:37;9.80;43.00
7700;DHT22;3892;47.794;19.126;2023-01-13T08:54:05;9.90;43.30
7700;DHT22;3892;47.794;19.126;2023-01-13T08:56:32;10.00;42.50
7700;DHT22;3892;47.794;19.126;2023-01-13T08:58:59;10.10;42.50
7700;DHT22;3892;47.794;19.126;2023-01-13T09:01:26;10.20;42.60
7700;DHT22;3892;47.794;19.126;2023-01-13T09:03:55;10.30;42.40
7700;DHT22;3892;47.794;19.126;2023-01-13T09:06:22;10.20;42.10
7700;DHT22;3892;47.794;19.126;2023-01-13T09:08:49;10.20;42.10
7700;DHT22;3892;47.794;19.126;2023-01-13T09:11:19;10.10;42.40
7700;DHT22;3892;47.794;19.126;2023-01-13T09:14:04;10.10;42.50
7700;DHT22;3892;47.794;19.126;2023-01-13T09:16:31;10.10;42.70
7700;DHT22;3892;47.794;19.126;2023-01-13T09:18:58;10.10;42.70
7700;DHT22;3892;47.794;19.126;2023-01-13T09:21:26;10.00;42.50
7700;DHT22;3892;47.794;19.126;2023-01-13T09:23:53;9.90;43.40
7700;DHT22;3892;47.794;19.126;2023-01-13T09:26:21;9.80;43.60
7700;DHT22;3892;47.794;19.126;2023-01-13T09:28:48;9.80;43.70
7700;DHT22;3892;47.794;19.126;2023-01-13T09:31:15;9.70;43.90
7700;DHT22;3892;47.794;19.126;2023-01-13T09:33:42;9.70;44.00
7700;DHT22;3892;47.794;19.126;2023-01-13T09:36:27;9.60;44.30
7700;DHT22;3892;47.794;19.126;2023-01-13T09:38:54;9.60;44.40
7700;DHT22;3892;47.794;19.126;2023-01-13T09:41:24;9.60;44.40
7700;DHT22;3892;47.794;19.126;2023-01-13T09:44:13;9.70;44.40
7700;DHT22;3892;47.794;19.126;2023-01-13T09:46:46;9.70;44.30
7700;DHT22;3892;47.794;19.126;2023-01-13T09:49:19;9.80;44.20
7700;DHT22;3892;47.794;19.126;2023-01-13T09:51:51;9.80;44.30
7700;DHT22;3892;47.794;19.126;2023-01-13T09:54:24;9.80;44.40
7700;DHT22;3892;47.794;19.126;2023-01-13T09:56:58;9.80;44.20
7700;DHT22;3892;47.794;19.126;2023-01-13T09:59:28;9.70;44.20
7700;DHT22;3892;47.794;19.126;2023-01-13T10:02:01;9.70;44.20
7700;DHT22;3892;47.794;19.126;2023-01-13T10:04:30;9.70;44.20
7700;DHT22;3892;47.794;19.126;2023-01-13T10:07:00;9.70;44.80
7700;DHT22;3892;47.794;19.126;2023-01-13T10:09:37;9.80;44.30
7700;DHT22;3892;47.794;19.126;2023-01-13T10:12:10;9.80;44.40
7700;DHT22;3892;47.794;19.126;2023-01-13T10:14:58;9.80;44.20
7700;DHT22;3892;47.794;19.126;2023-01-13T10:17:27;9.90;44.40
7700;DHT22;3892;47.794;19.126;2023-01-13T10:20:01;9.80;44.50
7700;DHT22;3892;47.794;19.126;2023-01-13T10:22:44;9.80;44.40
7700;DHT22;3892;47.794;19.126;2023-01-13T10:25:21;9.80;44.60
7700;DHT22;3892;47.794;19.126;2023-01-13T10:27:53;9.80;44.70
7700;DHT22;3892;47.794;19.126;2023-01-13T10:30:25;9.80;45.30
7700;DHT22;3892;47.794;19.126;2023-01-13T10:32:57;9.80;44.80
7700;DHT22;3892;47.794;19.126;2023-01-13T10:35:52;9.80;44.90
7700;DHT22;3892;47.794;19.126;2023-01-13T10:38:21;9.90;45.10
7700;DHT22;3892;47.794;19.126;2023-01-13T10:40:50;9.90;44.90
7700;DHT22;3892;47.794;19.126;2023-01-13T10:43:19;9.80;44.80
7700;DHT22;3892;47.794;19.126;2023-01-13T10:45:55;9.90;45.20
7700;DHT22;3892;47.794;19.126;2023-01-13T10:48:31;9.90;45.60
7700;DHT22;3892;47.794;19.126;2023-01-13T10:51:09;10.00;44.60
7700;DHT22;3892;47.794;19.126;2023-01-13T10:53:45;10.10;44.60
7700;DHT22;3892;47.794;19.126;2023-01-13T10:56:16;10.10;44.40
7700;DHT22;3892;47.794;19.126;2023-01-13T10:58:45;10.10;44.00
7700;DHT22;3892;47.794;19.126;2023-01-13T11:01:19;10.10;44.10
7700;DHT22;3892;47.794;19.126;2023-01-13T11:03:46;10.10;44.10
7700;DHT22;3892;47.794;19.126;2023-01-13T11:06:20;10.10;43.80
7700;DHT22;3892;47.794;19.126;2023-01-13T11:08:49;10.00;43.90
7700;DHT22;3892;47.794;19.126;2023-01-13T11:11:36;10.00;43.80
7700;DHT22;3892;47.794;19.126;2023-01-13T11:14:13;10.10;43.90
7700;DHT22;3892;47.794;19.126;2023-01-13T11:17:24;10.10;43.90
7700;DHT22;3892;47.794;19.126;2023-01-13T11:19:58;10.10;43.80
7700;DHT22;3892;47.794;19.126;2023-01-13T11:22:31;10.10;43.90
7700;DHT22;3892;47.794;19.126;2023-01-13T11:25:00;10.00;43.80
7700;DHT22;3892;47.794;19.126;2023-01-13T11:27:37;10.00;43.90
7700;DHT22;3892;47.794;19.126;2023-01-13T11:30:16;10.00;43.80
7700;DHT22;3892;47.794;19.126;2023-01-13T11:32:58;10.00;44.00
7700;DHT22;3892;47.794;19.126;2023-01-13T11:35:28;9.90;44.90
7700;DHT22;3892;47.794;19.126;2023-01-13T11:37:58;9.90;44.90
7700;DHT22;3892;47.794;19.126;2023-01-13T11:40:33;9.80;44.80
7700;DHT22;3892;47.794;19.126;2023-01-13T11:43:06;9.80;44.80
7700;DHT22;3892;47.794;19.126;2023-01-13T11:45:41;9.80;45.30
7700;DHT22;3892;47.794;19.126;2023-01-13T11:48:13;9.60;45.20
7700;DHT22;3892;47.794;19.126;2023-01-13T11:50:45;9.70;45.30
7700;DHT22;3892;47.794;19.126;2023-01-13T11:53:36;9.70;45.20
7700;DHT22;3892;47.794;19.126;2023-01-13T11:56:17;9.70;45.20
7700;DHT22;3892;47.794;19.126;2023-01-13T11:59:20;9.70;45.00
7700;DHT22;3892;47.794;19.126;2023-01-13T12:02:02;9.70;45.20
7700;DHT22;3892;47.794;19.126;2023-01-13T12:04:42;9.70;45.00
7700;DHT22;3892;47.794;19.126;2023-01-13T12:07:17;9.70;45.10
7700;DHT22;3892;47.794;19.126;2023-01-13T12:09:59;9.80;45.30
7700;DHT22;3892;47.794;19.126;2023-01-13T12:12:37;9.80;44.90
7700;DHT22;3892;47.794;19.126;2023-01-13T12:18:50;9.80;45.00
7700;DHT22;3892;47.794;19.126;2023-01-13T12:21:23;9.60;45.00
7700;DHT22;3892;47.794;19.126;2023-01-13T12:23:58;9.80;45.20
7700;DHT22;3892;47.794;19.126;2023-01-13T12:26:31;9.80;45.10
7700;DHT22;3892;47.794;19.126;2023-01-13T12:29:03;9.80;45.10
7700;DHT22;3892;47.794;19.126;2023-01-13T12:31:35;9.80;45.00
7700;DHT22;3892;47.794;19.126;2023-01-13T12:34:21;9.80;45.00
7700;DHT22;3892;47.794;19.126;2023-01-13T12:36:59;10.00;44.10
7700;DHT22;3892;47.794;19.126;2023-01-13T12:39:35;10.00;44.00
7700;DHT22;3892;47.794;19.126;2023-01-13T12:42:10;10.10;44.00
7700;DHT22;3892;47.794;19.126;2023-01-13T12:45:22;10.20;43.90
7700;DHT22;3892;47.794;19.126;2023-01-13T12:47:50;10.20;43.80
7700;DHT22;3892;47.794;19.126;2023-01-13T12:50:40;10.10;43.50
7700;DHT22;3892;47.794;19.126;2023-01-13T12:53:33;9.90;44.50
7700;DHT22;3892;47.794;19.126;2023-01-13T12:56:19;9.90;44.80
7700;DHT22;3892;47.794;19.126;2023-01-13T12:58:47;9.90;44.70
7700;DHT22;3892;47.794;19.126;2023-01-13T13:01:15;9.90;44.80
7700;DHT22;3892;47.794;19.126;2023-01-13T13:04:06;9.80;44.70
7700;DHT22;3892;47.794;19.126;2023-01-13T13:06:36;9.90;44.90
7700;DHT22;3892;47.794;19.126;2023-01-13T13:09:16;9.80;44.70
7700;DHT22;3892;47.794;19.126;2023-01-13T13:11:44;9.90;45.00
7700;DHT22;3892;47.794;19.126;2023-01-13T13:14:58;10.00;44.10
7700;DHT22;3892;47.794;19.126;2023-01-13T13:17:59;10.10;44.20
7700;DHT22;3892;47.794;19.126;2023-01-13T13:20:53;10.10;43.70
7700;DHT22;3892;47.794;19.126;2023-01-13T13:23:44;10.00;43.80
7700;DHT22;3892;47.794;19.126;2023-01-13T13:26:30;10.00;43.90
7700;DHT22;3892;47.794;19.126;2023-01-13T13:29:21;10.00;43.90
7700;DHT22;3892;47.794;19.126;2023-01-13T13:35:01;10.30;43.90
7700;DHT22;3892;47.794;19.126;2023-01-13T13:37:40;10.20;43.80
7700;DHT22;3892;47.794;19.126;2023-01-13T13:40:33;10.30;44.00
7700;DHT22;3892;47.794;19.126;2023-01-13T13:43:22;10.20;43.80
7700;DHT22;3892;47.794;19.126;2023-01-13T13:46:22;10.20;44.10
7700;DHT22;3892;47.794;19.126;2023-01-13T13:49:07;10.00;44.00
7700;DHT22;3892;47.794;19.126;2023-01-13T13:51:35;10.20;44.20
7700;DHT22;3892;47.794;19.126;2023-01-13T13:54:08;10.20;44.10
7700;DHT22;3892;47.794;19.126;2023-01-13T13:56:41;10.10;44.20
7700;DHT22;3892;47.794;19.126;2023-01-13T13:59:10;10.00;44.20
7700;DHT22;3892;47.794;19.126;2023-01-13T14:01:40;10.00;44.40
7700;DHT22;3892;47.794;19.126;2023-01-13T14:04:16;10.00;44.50
7700;DHT22;3892;47.794;19.126;2023-01-13T14:06:52;10.00;44.50
7700;DHT22;3892;47.794;19.126;2023-01-13T14:09:20;9.90;45.20
7700;DHT22;3892;47.794;19.126;2023-01-13T14:12:00;9.90;45.30
7700;DHT22;3892;47.794;19.126;2023-01-13T14:14:28;9.90;45.40
7700;DHT22;3892;47.794;19.126;2023-01-13T14:16:55;9.90;45.50
7700;DHT22;3892;47.794;19.126;2023-01-13T14:19:31;9.90;45.50
7700;DHT22;3892;47.794;19.126;2023-01-13T14:21:59;10.00;44.60
7700;DHT22;3892;47.794;19.126;2023-01-13T14:24:27;10.00;44.60
7700;DHT22;3892;47.794;19.126;2023-01-13T14:27:08;10.10;45.20
7700;DHT22;3892;47.794;19.126;2023-01-13T14:29:35;10.00;44.40
7700;DHT22;3892;47.794;19.126;2023-01-13T14:32:04;10.10;44.60
7700;DHT22;3892;47.794;19.126;2023-01-13T14:34:33;10.10;44.40
7700;DHT22;3892;47.794;19.126;2023-01-13T14:37:01;10.20;44.40
7700;DHT22;3892;47.794;19.126;2023-01-13T14:39:36;10.20;44.40
7700;DHT22;3892;47.794;19.126;2023-01-13T14:42:12;10.30;44.50
7700;DHT22;3892;47.794;19.126;2023-01-13T14:44:43;10.30;44.40
7700;DHT22;3892;47.794;19.126;2023-01-13T14:47:21;10.40;44.40
7700;DHT22;3892;47.794;19.126;2023-01-13T14:49:56;10.40;44.20
7700;DHT22;3892;47.794;19.126;2023-01-13T14:52:27;10.50;44.30
7700;DHT22;3892;47.794;19.126;2023-01-13T14:55:23;10.50;44.20
7700;DHT22;3892;47.794;19.126;2023-01-13T14:57:52;10.50;44.20
7700;DHT22;3892;47.794;19.126;2023-01-13T15:00:25;10.50;44.30
7700;DHT22;3892;47.794;19.126;2023-01-13T15:03:06;10.50;44.40
7700;DHT22;3892;47.794;19.126;2023-01-13T15:05:38;10.50;44.50
7700;DHT22;3892;47.794;19.126;2023-01-13T15:08:34;10.40;44.50
7700;DHT22;3892;47.794;19.126;2023-01-13T15:11:04;10.30;44.60
7700;DHT22;3892;47.794;19.126;2023-01-13T15:13:39;10.20;44.80
7700;DHT22;3892;47.794;19.126;2023-01-13T15:16:14;10.20;45.00
7700;DHT22;3892;47.794;19.126;2023-01-13T15:18:42;10.30;45.20
7700;DHT22;3892;47.794;19.126;2023-01-13T15:21:09;10.30;45.10
7700;DHT22;3892;47.794;19.126;2023-01-13T15:23:36;10.40;45.20
7700;DHT22;3892;47.794;19.126;2023-01-13T15:26:16;10.50;45.20
7700;DHT22;3892;47.794;19.126;2023-01-13T15:28:45;10.60;45.10
7700;DHT22;3892;47.794;19.126;2023-01-13T15:31:13;10.70;45.40
7700;DHT22;3892;47.794;19.126;2023-01-13T15:33:40;10.80;45.30
7700;DHT22;3892;47.794;19.126;2023-01-13T15:36:18;10.80;44.80
7700;DHT22;3892;47.794;19.126;2023-01-13T15:38:46;10.80;44.90
7700;DHT22;3892;47.794;19.126;2023-01-13T15:41:13;10.80;45.00
7700;DHT22;3892;47.794;19.126;2023-01-13T15:43:40;10.80;45.10
7700;DHT22;3892;47.794;19.126;2023-01-13T15:46:26;10.80;45.10
7700;DHT22;3892;47.794;19.126;2023-01-13T15:49:07;10.90;45.20
7700;DHT22;3892;47.794;19.126;2023-01-13T15:51:38;10.90;45.00
7700;DHT22;3892;47.794;19.126;2023-01-13T15:54:06;10.90;45.10
7700;DHT22;3892;47.794;19.126;2023-01-13T15:56:35;10.90;45.10
7700;DHT22;3892;47.794;19.126;2023-01-13T15:59:02;10.90;45.10
7700;DHT22;3892;47.794;19.126;2023-01-13T16:01:31;10.90;45.20
7700;DHT22;3892;47.794;19.126;2023-01-13T16:03:58;10.90;45.20
7700;DHT22;3892;47.794;19.126;2023-01-13T16:06:28;10.80;45.30
7700;DHT22;3892;47.794;19.126;2023-01-13T16:08:57;10.70;45.50
7700;DHT22;3892;47.794;19.126;2023-01-13T16:11:24;10.80;45.70
7700;DHT22;3892;47.794;19.126;2023-01-13T16:13:51;10.80;45.70
7700;DHT22;3892;47.794;19.126;2023-01-13T16:16:20;10.90;45.70
7700;DHT22;3892;47.794;19.126;2023-01-13T16:18:51;10.90;45.70
7700;DHT22;3892;47.794;19.126;2023-01-13T16:21:19;10.90;45.70
7700;DHT22;3892;47.794;19.126;2023-01-13T16:23:47;10.90;45.70
7700;DHT22;3892;47.794;19.126;2023-01-13T16:26:18;10.90;45.70
7700;DHT22;3892;47.794;19.126;2023-01-13T16:28:46;10.90;45.70
7700;DHT22;3892;47.794;19.126;2023-01-13T16:31:20;11.00;45.80
7700;DHT22;3892;47.794;19.126;2023-01-13T16:33:49;10.90;45.70
7700;DHT22;3892;47.794;19.126;2023-01-13T16:36:18;11.00;46.00
7700;DHT22;3892;47.794;19.126;2023-01-13T16:38:46;11.00;46.00